Time;durP1;ratioP1;P1;durP2;ratioP2;P2;SDS_P1;SDS_P2;PMS_P1;PMS_P2;Temp;Humidity;BMP_temperature;BMP_pressure;BME280_temperature;BME280_humidity;BME280_pressure;Samples;Min_cycle;Max_cycle;Signal;HPM_P1;HPM_P2
2023/09/18 00:01:52;;;;;;;6.43;4.93;;;;;;;;;;4952878;28;20463;-63
2023/09/18 00:04:18;;;;;;;6.80;5.07;;;;;;;;;;4952989;28;20138;-64
2023/09/18 00:06:45;;;;;;;7.95;4.95;;;;;;;;;;4954986;28;20058;-64
2023/09/18 00:09:13;;;;;;;6.93;4.70;;;;;;;;;;4971843;28;20057;-64
2023/09/18 00:11:40;;;;;;;7.40;5.55;;;;;;;;;;4962102;28;20051;-63
2023/09/18 00:14:09;;;;;;;6.13;4.63;;;;;;;;;;4960876;28;20054;-63
2023/09/18 00:16:36;;;;;;;6.40;4.60;;;;;;;;;;4961795;28;20143;-63
2023/09/18 00:19:02;;;;;;;7.50;5.20;;;;;;;;;;4963921;28;20122;-63
2023/09/18 00:21:30;;;;;;;7.40;5.03;;;;;;;;;;4963430;28;20077;-65
2023/09/18 00:23:57;;;;;;;6.40;4.57;;;;;;;;;;4961510;28;20577;-63
2023/09/18 00:26:24;;;;;;;6.43;4.32;;;;;;;;;;4964965;28;20043;-63
2023/09/18 00:28:51;;;;;;;6.60;4.35;;;;;;;;;;4961715;28;20134;-64
2023/09/18 00:31:20;;;;;;;5.97;4.45;;;;;;;;;;4967884;28;20051;-64
2023/09/18 00:33:46;;;;;;;7.45;4.55;;;;;;;;;;4963653;28;20071;-65
2023/09/18 00:36:13;;;;;;;8.02;4.78;;;;;;;;;;4963818;28;20047;-63
2023/09/18 00:38:39;;;;;;;7.15;4.30;;;;;;;;;;4959006;28;20049;-63
2023/09/18 00:41:07;;;;;;;7.90;4.40;;;;;;;;;;4976884;28;20054;-64
2023/09/18 00:43:34;;;;;;;7.40;4.43;;;;;;;;;;4985562;28;20045;-63
2023/09/18 00:46:01;;;;;;;5.75;4.30;;;;;;;;;;4979457;28;20059;-64
2023/09/18 00:48:29;;;;;;;6.63;4.43;;;;;;;;;;4988259;28;20042;-64
2023/09/18 00:50:57;;;;;;;7.20;4.60;;;;;;;;;;4987153;28;20051;-64
2023/09/18 00:53:26;;;;;;;6.50;4.32;;;;;;;;;;4971777;28;20055;-61
2023/09/18 00:55:56;;;;;;;6.47;4.50;;;;;;;;;;4959047;28;20134;-63
2023/09/18 00:58:23;;;;;;;6.65;4.35;;;;;;;;;;4983514;28;20280;-63
2023/09/18 01:00:51;;;;;;;5.80;4.35;;;;;;;;;;4981603;28;20422;-63
2023/09/18 01:03:18;;;;;;;9.05;4.60;;;;;;;;;;4990199;28;20529;-63
2023/09/18 01:05:46;;;;;;;6.47;4.40;;;;;;;;;;4965617;28;20051;-63
2023/09/18 01:08:13;;;;;;;5.40;3.97;;;;;;;;;;4955314;28;20043;-64
2023/09/18 01:10:49;;;;;;;5.65;4.28;;;;;;;;;;4963351;28;20051;-64
2023/09/18 01:13:22;;;;;;;6.57;4.82;;;;;;;;;;4962046;28;20047;-64
2023/09/18 01:15:55;;;;;;;6.22;4.05;;;;;;;;;;4958756;28;20138;-64
2023/09/18 01:18:22;;;;;;;7.90;4.43;;;;;;;;;;4974579;28;20106;-64
2023/09/18 01:20:50;;;;;;;5.82;3.95;;;;;;;;;;4971756;28;20081;-63
2023/09/18 01:23:18;;;;;;;6.10;3.90;;;;;;;;;;4957191;28;20165;-64
2023/09/18 01:25:44;;;;;;;5.90;4.30;;;;;;;;;;4965420;28;20047;-64
2023/09/18 01:28:11;;;;;;;6.22;4.28;;;;;;;;;;4960449;28;20106;-63
2023/09/18 01:30:38;;;;;;;6.18;3.80;;;;;;;;;;4966867;28;20047;-63
2023/09/18 01:33:05;;;;;;;7.32;4.35;;;;;;;;;;4987080;28;20055;-64
2023/09/18 01:35:34;;;;;;;6.47;4.57;;;;;;;;;;4969293;28;20138;-63
2023/09/18 01:38:02;;;;;;;6.37;4.30;;;;;;;;;;4969824;28;20185;-67
2023/09/18 01:40:32;;;;;;;5.68;3.75;;;;;;;;;;4962728;28;20054;-62
2023/09/18 01:42:59;;;;;;;6.00;4.35;;;;;;;;;;4963467;28;20043;-63
2023/09/18 01:45:26;;;;;;;5.85;4.13;;;;;;;;;;4962926;28;20134;-63
2023/09/18 01:47:52;;;;;;;6.25;4.05;;;;;;;;;;4970415;28;20047;-62
2023/09/18 01:50:19;;;;;;;6.10;3.88;;;;;;;;;;4976304;28;20042;-62
2023/09/18 01:52:45;;;;;;;6.03;3.95;;;;;;;;;;4980079;28;20409;-63
2023/09/18 01:55:12;;;;;;;7.63;4.20;;;;;;;;;;4974327;28;20046;-64
2023/09/18 01:57:42;;;;;;;5.35;3.95;;;;;;;;;;4976724;28;20050;-62
2023/09/18 02:00:10;;;;;;;5.65;3.72;;;;;;;;;;4978261;28;20093;-64
2023/09/18 02:02:37;;;;;;;7.18;3.45;;;;;;;;;;4977700;28;20082;-64
2023/09/18 02:05:04;;;;;;;5.78;4.10;;;;;;;;;;4981793;28;20046;-62
2023/09/18 02:07:31;;;;;;;5.88;3.47;;;;;;;;;;4986951;28;20432;-64
2023/09/18 02:09:58;;;;;;;5.80;3.90;;;;;;;;;;4967512;28;20443;-65
2023/09/18 02:12:25;;;;;;;6.47;4.15;;;;;;;;;;4984482;28;20042;-65
2023/09/18 02:14:53;;;;;;;5.82;4.35;;;;;;;;;;4963001;28;20537;-62
2023/09/18 02:17:20;;;;;;;7.30;4.75;;;;;;;;;;4978659;28;20133;-63
2023/09/18 02:19:47;;;;;;;7.60;3.90;;;;;;;;;;4968333;28;20528;-63
2023/09/18 02:22:13;;;;;;;5.85;3.90;;;;;;;;;;4961029;28;20053;-63
2023/09/18 02:24:40;;;;;;;6.90;3.85;;;;;;;;;;4972183;28;20049;-63
2023/09/18 02:27:07;;;;;;;6.38;3.88;;;;;;;;;;4976861;28;20500;-64
2023/09/18 02:29:34;;;;;;;8.57;4.70;;;;;;;;;;4977105;28;20051;-63
2023/09/18 02:32:02;;;;;;;7.20;4.28;;;;;;;;;;4961564;28;20131;-66
2023/09/18 02:34:28;;;;;;;6.07;4.10;;;;;;;;;;4962191;28;20054;-65
2023/09/18 02:36:55;;;;;;;6.93;3.97;;;;;;;;;;4957666;28;20089;-63
2023/09/18 02:39:22;;;;;;;7.15;3.75;;;;;;;;;;4966334;28;20047;-64
2023/09/18 02:41:48;;;;;;;6.70;3.55;;;;;;;;;;4972534;28;20058;-64
2023/09/18 02:44:15;;;;;;;5.55;3.70;;;;;;;;;;4965628;28;20046;-65
2023/09/18 02:46:43;;;;;;;7.03;3.70;;;;;;;;;;4965329;28;20547;-65
2023/09/18 02:49:11;;;;;;;5.28;3.25;;;;;;;;;;4968018;28;20377;-63
2023/09/18 02:51:37;;;;;;;6.10;3.55;;;;;;;;;;4961559;28;20418;-63
2023/09/18 02:54:04;;;;;;;8.30;3.88;;;;;;;;;;4958842;28;20046;-64
2023/09/18 02:56:31;;;;;;;6.05;3.42;;;;;;;;;;4957015;28;20134;-65
2023/09/18 02:58:58;;;;;;;7.15;3.90;;;;;;;;;;4972609;28;20053;-64
2023/09/18 03:01:27;;;;;;;5.97;4.03;;;;;;;;;;4965360;28;20044;-63
2023/09/18 03:03:53;;;;;;;5.97;3.72;;;;;;;;;;4965373;28;20047;-66
2023/09/18 03:06:21;;;;;;;7.53;3.72;;;;;;;;;;4964484;28;20050;-66
2023/09/18 03:08:48;;;;;;;6.78;3.90;;;;;;;;;;4961958;28;20134;-63
2023/09/18 03:11:16;;;;;;;5.63;3.95;;;;;;;;;;4961280;28;20500;-66
2023/09/18 03:13:47;;;;;;;9.32;4.05;;;;;;;;;;4963488;28;20054;-66
2023/09/18 03:16:14;;;;;;;6.93;3.55;;;;;;;;;;4965225;28;20054;-64
2023/09/18 03:18:40;;;;;;;5.20;3.72;;;;;;;;;;4956992;28;20487;-63
2023/09/18 03:21:07;;;;;;;7.28;3.83;;;;;;;;;;4964464;28;20129;-63
2023/09/18 03:23:36;;;;;;;6.75;3.65;;;;;;;;;;4964595;28;20043;-63
2023/09/18 03:26:03;;;;;;;5.70;3.70;;;;;;;;;;4968256;28;20593;-63
2023/09/18 03:28:29;;;;;;;6.90;4.30;;;;;;;;;;4961251;28;20053;-63
2023/09/18 03:30:57;;;;;;;7.00;3.80;;;;;;;;;;4964167;28;20051;-63
2023/09/18 03:33:23;;;;;;;8.50;4.13;;;;;;;;;;4957270;28;20495;-63
2023/09/18 03:35:51;;;;;;;7.72;4.03;;;;;;;;;;4961059;28;20562;-63
2023/09/18 03:38:18;;;;;;;9.25;4.30;;;;;;;;;;4960760;28;20146;-63
2023/09/18 03:40:46;;;;;;;7.22;4.15;;;;;;;;;;4960788;28;20051;-63
2023/09/18 03:43:12;;;;;;;6.20;3.65;;;;;;;;;;4953178;28;20404;-63
2023/09/18 03:45:40;;;;;;;7.40;3.95;;;;;;;;;;4962737;28;20074;-63
2023/09/18 03:48:07;;;;;;;6.55;3.55;;;;;;;;;;4958987;28;20047;-63
2023/09/18 03:50:34;;;;;;;6.43;4.20;;;;;;;;;;4960985;28;20130;-63
2023/09/18 03:53:00;;;;;;;6.78;4.03;;;;;;;;;;4960914;28;20238;-62
2023/09/18 03:55:27;;;;;;;7.63;4.10;;;;;;;;;;4961134;28;20043;-63
2023/09/18 03:57:55;;;;;;;7.40;3.83;;;;;;;;;;4958168;28;20133;-63
2023/09/18 04:00:22;;;;;;;7.25;4.47;;;;;;;;;;4967865;28;20047;-63
2023/09/18 04:02:49;;;;;;;7.10;4.22;;;;;;;;;;4964238;28;20434;-63
2023/09/18 04:05:15;;;;;;;6.80;3.85;;;;;;;;;;4967511;28;20069;-64
2023/09/18 04:07:45;;;;;;;6.60;3.80;;;;;;;;;;4964272;28;20142;-64
2023/09/18 04:10:18;;;;;;;7.15;4.05;;;;;;;;;;4967598;28;20043;-64
2023/09/18 04:12:46;;;;;;;8.13;4.55;;;;;;;;;;4962688;28;20055;-64
2023/09/18 04:15:15;;;;;;;7.60;4.00;;;;;;;;;;4959800;28;20475;-64
2023/09/18 04:17:42;;;;;;;7.13;4.57;;;;;;;;;;4964579;28;20481;-64
2023/09/18 04:20:09;;;;;;;7.50;4.60;;;;;;;;;;4969302;28;20510;-64
2023/09/18 04:22:36;;;;;;;6.43;4.18;;;;;;;;;;4973392;28;20382;-64
2023/09/18 04:25:05;;;;;;;5.93;4.30;;;;;;;;;;4963476;28;20048;-63
2023/09/18 04:27:31;;;;;;;5.80;4.30;;;;;;;;;;4964934;28;20043;-64
2023/09/18 04:29:58;;;;;;;7.50;4.30;;;;;;;;;;4967509;28;20054;-63
2023/09/18 04:32:29;;;;;;;8.20;4.78;;;;;;;;;;4967960;28;20414;-63
2023/09/18 04:34:55;;;;;;;8.05;4.85;;;;;;;;;;4960338;28;20050;-63
2023/09/18 04:37:22;;;;;;;8.07;4.10;;;;;;;;;;4967623;28;20057;-64
2023/09/18 04:39:49;;;;;;;6.18;4.20;;;;;;;;;;4959302;28;20145;-63
2023/09/18 04:42:15;;;;;;;6.63;4.15;;;;;;;;;;4967347;28;20126;-64
2023/09/18 04:44:42;;;;;;;7.95;4.93;;;;;;;;;;4965619;28;20083;-64
2023/09/18 04:47:09;;;;;;;8.00;4.80;;;;;;;;;;4963901;28;20420;-64
2023/09/18 04:49:37;;;;;;;7.45;4.75;;;;;;;;;;4963596;28;20050;-64
2023/09/18 04:52:05;;;;;;;8.35;4.47;;;;;;;;;;4963929;28;20134;-64
2023/09/18 04:54:31;;;;;;;7.88;4.72;;;;;;;;;;4964385;28;20142;-64
2023/09/18 04:56:58;;;;;;;6.72;4.35;;;;;;;;;;4967463;28;20130;-64
2023/09/18 04:59:24;;;;;;;9.98;4.68;;;;;;;;;;4959595;28;20130;-64
2023/09/18 05:01:51;;;;;;;7.53;3.60;;;;;;;;;;4966883;28;20050;-64
2023/09/18 05:04:18;;;;;;;7.45;4.05;;;;;;;;;;4975565;28;20420;-64
2023/09/18 05:06:46;;;;;;;6.63;4.07;;;;;;;;;;4965249;28;20399;-63
2023/09/18 05:09:12;;;;;;;7.05;3.88;;;;;;;;;;4970628;28;20047;-64
2023/09/18 05:11:41;;;;;;;7.65;3.90;;;;;;;;;;4968489;28;20137;-63
2023/09/18 05:14:08;;;;;;;8.63;4.50;;;;;;;;;;4976640;28;20102;-63
2023/09/18 05:16:35;;;;;;;7.03;4.15;;;;;;;;;;4971058;28;20114;-63
2023/09/18 05:19:02;;;;;;;8.25;4.30;;;;;;;;;;4961193;28;20157;-63
2023/09/18 05:21:29;;;;;;;7.78;4.15;;;;;;;;;;4963196;28;20147;-63
2023/09/18 05:23:57;;;;;;;7.30;4.15;;;;;;;;;;4963554;28;20051;-63
2023/09/18 05:26:26;;;;;;;10.40;5.03;;;;;;;;;;4973672;28;20060;-63
2023/09/18 05:28:54;;;;;;;11.63;4.80;;;;;;;;;;4977583;28;20054;-65
2023/09/18 05:31:21;;;;;;;10.52;5.15;;;;;;;;;;4983414;28;20058;-63
2023/09/18 05:33:48;;;;;;;14.52;5.20;;;;;;;;;;4967712;28;20066;-63
2023/09/18 05:36:14;;;;;;;13.68;5.20;;;;;;;;;;4974542;28;20050;-63
2023/09/18 05:38:41;;;;;;;12.25;5.57;;;;;;;;;;4963776;28;20138;-63
2023/09/18 05:41:09;;;;;;;10.70;5.03;;;;;;;;;;4966606;28;20142;-63
2023/09/18 05:43:36;;;;;;;11.93;5.47;;;;;;;;;;4976949;28;20042;-63
2023/09/18 05:46:03;;;;;;;11.57;4.95;;;;;;;;;;4961111;28;20138;-63
2023/09/18 05:48:31;;;;;;;9.60;5.63;;;;;;;;;;4980898;28;20054;-63
2023/09/18 05:50:58;;;;;;;9.75;5.05;;;;;;;;;;4978165;28;20054;-63
2023/09/18 05:53:24;;;;;;;11.77;5.93;;;;;;;;;;4974892;28;20396;-63
2023/09/18 05:55:51;;;;;;;10.40;5.70;;;;;;;;;;4974329;28;20138;-64
2023/09/18 05:58:22;;;;;;;8.85;4.70;;;;;;;;;;4969464;28;20524;-64
2023/09/18 06:00:49;;;;;;;12.07;5.47;;;;;;;;;;4966041;28;20062;-64
2023/09/18 06:03:18;;;;;;;10.57;4.90;;;;;;;;;;4974957;28;20046;-63
2023/09/18 06:05:45;;;;;;;7.57;4.18;;;;;;;;;;4980858;28;20043;-64
2023/09/18 06:08:12;;;;;;;9.38;5.22;;;;;;;;;;4973644;28;20073;-64
2023/09/18 06:10:38;;;;;;;10.75;5.10;;;;;;;;;;4964599;28;20141;-64
2023/09/18 06:13:05;;;;;;;8.55;5.07;;;;;;;;;;4962561;28;20111;-63
2023/09/18 06:15:34;;;;;;;6.78;4.13;;;;;;;;;;4968849;28;20082;-63
2023/09/18 06:18:00;;;;;;;8.68;4.43;;;;;;;;;;4962314;28;20519;-63
2023/09/18 06:20:27;;;;;;;8.30;4.47;;;;;;;;;;4963976;28;20047;-64
2023/09/18 06:22:54;;;;;;;7.45;4.53;;;;;;;;;;4974912;28;20052;-64
2023/09/18 06:25:20;;;;;;;11.73;5.60;;;;;;;;;;4969575;28;20051;-64
2023/09/18 06:27:47;;;;;;;10.45;5.00;;;;;;;;;;4969954;28;20097;-64
2023/09/18 06:30:14;;;;;;;12.00;6.43;;;;;;;;;;4966882;28;20135;-64
2023/09/18 06:32:42;;;;;;;11.77;6.15;;;;;;;;;;4966712;28;20069;-64
2023/09/18 06:35:09;;;;;;;13.57;6.38;;;;;;;;;;4968001;28;20051;-63
2023/09/18 06:37:36;;;;;;;9.23;5.20;;;;;;;;;;4967146;28;20711;-63
2023/09/18 06:40:05;;;;;;;9.55;5.35;;;;;;;;;;4962645;28;20051;-64
2023/09/18 06:42:31;;;;;;;9.00;5.68;;;;;;;;;;4965141;28;20446;-64
2023/09/18 06:44:58;;;;;;;8.63;4.78;;;;;;;;;;4973550;28;20050;-63
2023/09/18 06:47:25;;;;;;;9.95;6.00;;;;;;;;;;4967159;28;20042;-63
2023/09/18 06:49:52;;;;;;;8.95;4.90;;;;;;;;;;4964217;28;20043;-63
2023/09/18 06:52:19;;;;;;;8.65;5.40;;;;;;;;;;4962639;28;20133;-63
2023/09/18 06:54:46;;;;;;;9.98;5.45;;;;;;;;;;4970273;28;20053;-63
2023/09/18 06:57:12;;;;;;;10.70;5.25;;;;;;;;;;4977679;28;20074;-62
2023/09/18 06:59:39;;;;;;;12.57;6.03;;;;;;;;;;4965474;28;20051;-64
2023/09/18 07:02:06;;;;;;;9.80;6.13;;;;;;;;;;4964980;28;20046;-62
2023/09/18 07:04:33;;;;;;;8.23;5.05;;;;;;;;;;4964481;28;20051;-62
2023/09/18 07:07:01;;;;;;;8.48;5.05;;;;;;;;;;4961892;28;20061;-62
2023/09/18 07:09:27;;;;;;;7.80;4.97;;;;;;;;;;4961801;28;20134;-63
2023/09/18 07:11:54;;;;;;;9.82;5.25;;;;;;;;;;4962748;28;20053;-62
2023/09/18 07:14:20;;;;;;;8.50;5.50;;;;;;;;;;4965836;28;20044;-64
2023/09/18 07:16:47;;;;;;;10.75;5.93;;;;;;;;;;4966734;28;20053;-64
2023/09/18 07:19:16;;;;;;;8.57;5.28;;;;;;;;;;4965971;28;20050;-64
2023/09/18 07:21:44;;;;;;;11.93;6.35;;;;;;;;;;4972346;28;20509;-65
2023/09/18 07:24:16;;;;;;;8.48;5.80;;;;;;;;;;4964942;28;20055;-65
2023/09/18 07:26:45;;;;;;;9.65;4.85;;;;;;;;;;4962474;28;20583;-65
2023/09/18 07:29:12;;;;;;;10.80;5.13;;;;;;;;;;4957644;28;20055;-65
2023/09/18 07:31:40;;;;;;;8.82;5.20;;;;;;;;;;4960304;28;20050;-66
2023/09/18 07:34:06;;;;;;;6.68;4.82;;;;;;;;;;4966438;28;20048;-67
2023/09/18 07:36:33;;;;;;;8.27;5.38;;;;;;;;;;4962047;28;21428;-63
2023/09/18 07:39:00;;;;;;;7.57;4.90;;;;;;;;;;4965898;28;20047;-63
2023/09/18 07:41:28;;;;;;;7.60;5.30;;;;;;;;;;4970934;28;20413;-62
2023/09/18 07:43:54;;;;;;;8.77;5.60;;;;;;;;;;4968372;28;20075;-63
2023/09/18 07:46:21;;;;;;;8.65;5.35;;;;;;;;;;4968342;28;20117;-64
2023/09/18 07:48:48;;;;;;;9.75;5.32;;;;;;;;;;4969019;28;20490;-62
2023/09/18 07:51:16;;;;;;;7.68;5.70;;;;;;;;;;4969767;28;20129;-63
2023/09/18 07:53:43;;;;;;;10.95;5.88;;;;;;;;;;4971605;28;20074;-62
2023/09/18 07:56:09;;;;;;;6.68;5.22;;;;;;;;;;4976039;28;20130;-62
2023/09/18 07:58:39;;;;;;;8.50;5.70;;;;;;;;;;4971574;28;20418;-62
2023/09/18 08:01:06;;;;;;;7.57;5.07;;;;;;;;;;4981726;28;20506;-60
2023/09/18 08:03:33;;;;;;;8.05;5.53;;;;;;;;;;4977988;28;20142;-62
2023/09/18 08:05:59;;;;;;;7.53;5.45;;;;;;;;;;4973385;28;20054;-60
2023/09/18 08:08:26;;;;;;;12.98;7.45;;;;;;;;;;4973327;28;20054;-62
2023/09/18 08:10:54;;;;;;;10.15;5.25;;;;;;;;;;4971887;28;20440;-63
2023/09/18 08:13:20;;;;;;;8.13;5.45;;;;;;;;;;4978037;28;20058;-63
2023/09/18 08:15:50;;;;;;;7.30;4.93;;;;;;;;;;4972126;28;20047;-64
2023/09/18 08:18:17;;;;;;;8.90;5.85;;;;;;;;;;4975224;28;20055;-63
2023/09/18 08:20:44;;;;;;;8.68;4.68;;;;;;;;;;4966720;28;20137;-64
2023/09/18 08:23:11;;;;;;;11.10;6.57;;;;;;;;;;4975487;28;20134;-61
2023/09/18 08:25:39;;;;;;;11.55;6.78;;;;;;;;;;4970287;28;20077;-64
2023/09/18 08:28:06;;;;;;;9.63;5.07;;;;;;;;;;4985518;28;20051;-65
2023/09/18 08:30:33;;;;;;;7.05;5.00;;;;;;;;;;4963627;28;20066;-62
2023/09/18 08:33:01;;;;;;;8.68;5.53;;;;;;;;;;4971932;28;20448;-61
2023/09/18 08:35:29;;;;;;;7.82;5.07;;;;;;;;;;4965877;28;20053;-62
2023/09/18 08:37:56;;;;;;;8.70;5.35;;;;;;;;;;4963643;28;20051;-64
2023/09/18 08:40:25;;;;;;;7.80;4.65;;;;;;;;;;4982375;28;20050;-64
2023/09/18 08:42:54;;;;;;;9.95;5.78;;;;;;;;;;4969786;28;20081;-63
2023/09/18 08:45:26;;;;;;;7.70;5.22;;;;;;;;;;4968339;28;20559;-64
2023/09/18 08:47:55;;;;;;;15.30;7.00;;;;;;;;;;4976920;28;20102;-66
2023/09/18 08:50:24;;;;;;;10.23;5.88;;;;;;;;;;4979091;28;20150;-64
2023/09/18 08:52:51;;;;;;;8.75;6.40;;;;;;;;;;4976569;28;20050;-64
2023/09/18 08:55:19;;;;;;;12.50;6.10;;;;;;;;;;4979387;28;20056;-65
2023/09/18 08:57:46;;;;;;;9.23;5.22;;;;;;;;;;4986290;28;20137;-65
2023/09/18 09:00:16;;;;;;;25.67;10.90;;;;;;;;;;4982696;28;20047;-64
2023/09/18 09:02:43;;;;;;;9.63;6.40;;;;;;;;;;4965340;28;20515;-64
2023/09/18 09:05:10;;;;;;;8.52;6.13;;;;;;;;;;4974621;28;20425;-64
2023/09/18 09:07:38;;;;;;;9.85;5.05;;;;;;;;;;4971962;28;20125;-67
2023/09/18 09:10:05;;;;;;;7.97;5.35;;;;;;;;;;4960315;28;20047;-64
2023/09/18 09:12:54;;;;;;;9.48;6.18;;;;;;;;;;4970376;28;20545;-64
2023/09/18 09:15:22;;;;;;;12.10;6.05;;;;;;;;;;4968368;28;20061;-64
2023/09/18 09:17:50;;;;;;;12.13;5.97;;;;;;;;;;4972982;28;20516;-64
2023/09/18 09:20:18;;;;;;;21.20;9.18;;;;;;;;;;4981133;28;20116;-64
2023/09/18 09:22:46;;;;;;;11.65;6.65;;;;;;;;;;4975800;28;20051;-64
2023/09/18 09:25:27;;;;;;;11.57;5.65;;;;;;;;;;4979352;28;20071;-63
2023/09/18 09:27:54;;;;;;;8.60;5.75;;;;;;;;;;4970956;28;20073;-63
2023/09/18 09:30:23;;;;;;;7.97;4.80;;;;;;;;;;4982643;28;20533;-64
2023/09/18 09:32:51;;;;;;;8.20;5.05;;;;;;;;;;4963711;28;20051;-64
2023/09/18 09:35:22;;;;;;;8.38;5.03;;;;;;;;;;4962795;28;20042;-64
2023/09/18 09:37:52;;;;;;;8.52;5.60;;;;;;;;;;4980448;28;20053;-64
2023/09/18 09:40:21;;;;;;;8.70;5.30;;;;;;;;;;4983412;28;20482;-64
2023/09/18 09:42:48;;;;;;;9.18;5.28;;;;;;;;;;4984967;28;20054;-65
2023/09/18 09:45:16;;;;;;;9.07;5.10;;;;;;;;;;4977397;28;20042;-64
2023/09/18 09:47:43;;;;;;;9.88;5.10;;;;;;;;;;4984671;28;20432;-64
2023/09/18 09:50:11;;;;;;;9.35;5.28;;;;;;;;;;4979886;28;20057;-65
2023/09/18 09:52:44;;;;;;;7.72;4.45;;;;;;;;;;4979173;28;20055;-64
2023/09/18 09:55:24;;;;;;;9.27;5.43;;;;;;;;;;4963829;28;20153;-64
2023/09/18 09:57:52;;;;;;;9.90;4.38;;;;;;;;;;4968178;28;20498;-64
2023/09/18 10:00:30;;;;;;;13.98;4.55;;;;;;;;;;4968327;28;20138;-65
2023/09/18 10:03:02;;;;;;;7.93;4.95;;;;;;;;;;4980570;28;20046;-65
2023/09/18 10:05:32;;;;;;;9.18;6.03;;;;;;;;;;4974051;28;20050;-64
2023/09/18 10:08:00;;;;;;;8.35;4.43;;;;;;;;;;4982588;28;20058;-65
2023/09/18 10:10:33;;;;;;;8.15;4.72;;;;;;;;;;4985890;28;20046;-65
2023/09/18 10:13:04;;;;;;;7.45;4.53;;;;;;;;;;4978729;28;20554;-64
2023/09/18 10:15:38;;;;;;;9.55;4.38;;;;;;;;;;4968151;28;20056;-65
2023/09/18 10:18:08;;;;;;;9.18;4.78;;;;;;;;;;4971392;28;20529;-65
2023/09/18 10:20:42;;;;;;;9.60;5.18;;;;;;;;;;4969747;28;20124;-65
2023/09/18 10:23:20;;;;;;;9.20;4.38;;;;;;;;;;4980900;28;20078;-65
2023/09/18 10:25:50;;;;;;;6.85;4.10;;;;;;;;;;4979057;28;20077;-64
2023/09/18 10:28:17;;;;;;;8.32;4.05;;;;;;;;;;4975683;28;20086;-65
2023/09/18 10:30:45;;;;;;;7.47;3.97;;;;;;;;;;4977485;28;20043;-65
2023/09/18 10:33:13;;;;;;;10.32;4.40;;;;;;;;;;4977467;28;20421;-65
2023/09/18 10:35:40;;;;;;;10.13;4.65;;;;;;;;;;4980593;28;20066;-65
2023/09/18 10:38:07;;;;;;;8.27;3.60;;;;;;;;;;4973178;28;20538;-65
2023/09/18 10:40:37;;;;;;;8.40;3.70;;;;;;;;;;4974527;28;20086;-65
2023/09/18 10:43:09;;;;;;;8.23;4.03;;;;;;;;;;4975516;28;20042;-65
2023/09/18 10:45:37;;;;;;;17.60;6.50;;;;;;;;;;4980216;28;20051;-65
2023/09/18 10:48:08;;;;;;;12.13;5.25;;;;;;;;;;4970857;28;20495;-65
2023/09/18 10:50:36;;;;;;;8.95;3.40;;;;;;;;;;4977735;28;20054;-64
2023/09/18 10:53:03;;;;;;;14.98;5.35;;;;;;;;;;4981984;28;20203;-64
2023/09/18 10:55:30;;;;;;;11.52;3.50;;;;;;;;;;4978709;28;20084;-65
2023/09/18 10:57:59;;;;;;;9.05;3.40;;;;;;;;;;4980352;28;20554;-64
2023/09/18 11:00:27;;;;;;;9.45;3.70;;;;;;;;;;4982386;28;20050;-65
2023/09/18 11:02:55;;;;;;;10.90;3.70;;;;;;;;;;4977221;28;20042;-65
2023/09/18 11:05:33;;;;;;;9.50;4.07;;;;;;;;;;4975193;28;20149;-65
2023/09/18 11:08:33;;;;;;;10.73;3.40;;;;;;;;;;4985451;28;20081;-65
2023/09/18 11:11:04;;;;;;;12.63;3.92;;;;;;;;;;4972286;28;20050;-65
2023/09/18 11:13:34;;;;;;;12.55;3.30;;;;;;;;;;4982472;28;20047;-65
2023/09/18 11:16:13;;;;;;;11.43;3.28;;;;;;;;;;4977962;28;20409;-65
2023/09/18 11:18:40;;;;;;;13.57;4.00;;;;;;;;;;4977215;28;20331;-65
2023/09/18 11:21:11;;;;;;;11.98;3.58;;;;;;;;;;4969352;28;20053;-65
2023/09/18 11:23:42;;;;;;;11.93;3.97;;;;;;;;;;4973207;28;20053;-65
2023/09/18 11:26:09;;;;;;;10.23;3.40;;;;;;;;;;4979708;28;20133;-65
2023/09/18 11:28:37;;;;;;;10.80;4.10;;;;;;;;;;4977600;28;20574;-65
2023/09/18 11:31:06;;;;;;;11.52;3.50;;;;;;;;;;4986994;28;20058;-65
2023/09/18 11:33:37;;;;;;;11.63;3.40;;;;;;;;;;4970938;28;20536;-65
2023/09/18 11:36:07;;;;;;;7.13;3.17;;;;;;;;;;4978783;28;20130;-64
2023/09/18 11:38:51;;;;;;;9.85;2.70;;;;;;;;;;4966780;28;20415;-64
2023/09/18 11:41:26;;;;;;;9.07;2.47;;;;;;;;;;4973916;28;20053;-65
2023/09/18 11:43:53;;;;;;;7.93;2.55;;;;;;;;;;4975493;28;20414;-65
2023/09/18 11:46:22;;;;;;;8.02;2.28;;;;;;;;;;4982884;28;20042;-65
2023/09/18 11:48:51;;;;;;;7.93;2.50;;;;;;;;;;4970086;28;20047;-64
2023/09/18 11:51:23;;;;;;;9.88;2.78;;;;;;;;;;4978047;28;20046;-65
2023/09/18 11:53:53;;;;;;;8.20;2.15;;;;;;;;;;4968577;28;20061;-64
2023/09/18 11:56:21;;;;;;;6.30;1.98;;;;;;;;;;4981658;28;20495;-65
2023/09/18 11:58:48;;;;;;;5.55;1.90;;;;;;;;;;4971978;28;20055;-65
2023/09/18 12:01:15;;;;;;;7.95;1.95;;;;;;;;;;4979582;28;20078;-64
2023/09/18 12:03:43;;;;;;;7.50;2.45;;;;;;;;;;4974628;28;20523;-65
2023/09/18 12:06:12;;;;;;;5.15;1.80;;;;;;;;;;4976128;28;20051;-64
2023/09/18 12:08:40;;;;;;;5.00;2.00;;;;;;;;;;4971530;28;20055;-64
2023/09/18 12:11:07;;;;;;;3.97;1.75;;;;;;;;;;4980794;28;20047;-64
2023/09/18 12:13:34;;;;;;;5.32;1.85;;;;;;;;;;4962198;28;20453;-67
2023/09/18 12:16:04;;;;;;;4.63;1.42;;;;;;;;;;4965407;28;20066;-69
2023/09/18 12:18:32;;;;;;;;;;;;;;;;;;4966978;28;20047;-69
2023/09/18 12:21:00;;;;;;;5.53;1.60;;;;;;;;;;4971302;28;19922;-65
2023/09/18 12:23:28;;;;;;;4.43;1.50;;;;;;;;;;4976549;28;20138;-64
2023/09/18 12:26:00;;;;;;;4.18;1.40;;;;;;;;;;4986141;28;20082;-65
2023/09/18 12:28:28;;;;;;;3.85;1.85;;;;;;;;;;4983291;28;20043;-64
2023/09/18 12:30:56;;;;;;;5.15;1.50;;;;;;;;;;4964624;28;20043;-66
2023/09/18 12:33:22;;;;;;;5.80;1.60;;;;;;;;;;4979958;28;20165;-64
2023/09/18 12:35:51;;;;;;;5.20;1.65;;;;;;;;;;4967515;28;20046;-65
2023/09/18 12:38:24;;;;;;;5.68;2.05;;;;;;;;;;4975954;28;20078;-65
2023/09/18 12:40:51;;;;;;;3.80;1.80;;;;;;;;;;4982916;28;20047;-65
2023/09/18 12:43:19;;;;;;;4.80;1.60;;;;;;;;;;4976739;28;20654;-64
2023/09/18 12:45:47;;;;;;;5.32;2.20;;;;;;;;;;4981031;28;20097;-65
2023/09/18 12:48:14;;;;;;;5.05;1.52;;;;;;;;;;4981974;28;20050;-64
2023/09/18 12:50:41;;;;;;;4.35;1.80;;;;;;;;;;4982520;28;20439;-64
2023/09/18 12:53:09;;;;;;;4.45;1.60;;;;;;;;;;4970576;28;20046;-65
2023/09/18 12:55:38;;;;;;;6.18;2.67;;;;;;;;;;4978827;28;20058;-65
2023/09/18 12:58:07;;;;;;;5.93;1.70;;;;;;;;;;4979171;28;20086;-64
2023/09/18 13:00:35;;;;;;;4.80;1.70;;;;;;;;;;4979936;28;20055;-65
2023/09/18 13:03:04;;;;;;;6.63;1.95;;;;;;;;;;4986819;28;20418;-64
2023/09/18 13:05:32;;;;;;;5.03;1.45;;;;;;;;;;4980984;28;20086;-64
2023/09/18 13:08:04;;;;;;;3.70;1.40;;;;;;;;;;4983015;28;20651;-66
2023/09/18 13:10:30;;;;;;;5.57;1.90;;;;;;;;;;4977366;28;20054;-64
2023/09/18 13:12:59;;;;;;;6.38;1.40;;;;;;;;;;4972812;28;20777;-64
2023/09/18 13:15:28;;;;;;;4.35;1.67;;;;;;;;;;4975531;28;20050;-64
2023/09/18 13:17:55;;;;;;;3.55;1.25;;;;;;;;;;4985693;28;20077;-64
2023/09/18 13:20:24;;;;;;;6.53;1.73;;;;;;;;;;4987724;28;20050;-64
2023/09/18 13:22:52;;;;;;;5.10;1.40;;;;;;;;;;4976059;28;20106;-64
2023/09/18 13:25:23;;;;;;;4.78;1.40;;;;;;;;;;4979925;28;20108;-65
2023/09/18 13:27:50;;;;;;;6.50;1.50;;;;;;;;;;4976897;28;20061;-64
2023/09/18 13:30:20;;;;;;;5.60;1.95;;;;;;;;;;4975005;28;20051;-64
2023/09/18 13:32:49;;;;;;;5.07;1.53;;;;;;;;;;4977204;28;20530;-64
2023/09/18 13:35:15;;;;;;;4.18;1.83;;;;;;;;;;4968592;28;20284;-64
2023/09/18 13:37:42;;;;;;;3.60;1.50;;;;;;;;;;4972032;28;20129;-64
2023/09/18 13:40:10;;;;;;;7.30;1.60;;;;;;;;;;4976006;28;20053;-64
2023/09/18 13:42:37;;;;;;;3.28;1.48;;;;;;;;;;4976786;28;20121;-64
2023/09/18 13:45:05;;;;;;;5.32;1.40;;;;;;;;;;4971751;28;20513;-64
2023/09/18 13:47:34;;;;;;;4.28;1.60;;;;;;;;;;4978685;28;20047;-64
2023/09/18 13:50:01;;;;;;;4.32;1.60;;;;;;;;;;4971447;28;20396;-64
2023/09/18 13:52:28;;;;;;;3.63;1.42;;;;;;;;;;4971857;28;20130;-64
2023/09/18 13:54:55;;;;;;;3.53;1.63;;;;;;;;;;4979720;28;20056;-65
2023/09/18 13:57:22;;;;;;;4.70;2.03;;;;;;;;;;4979151;28;20086;-64
2023/09/18 13:59:50;;;;;;;3.08;1.67;;;;;;;;;;4972220;28;20090;-64
2023/09/18 14:02:17;;;;;;;4.38;1.38;;;;;;;;;;4980871;28;20126;-64
2023/09/18 14:04:45;;;;;;;6.30;1.65;;;;;;;;;;4970033;28;20050;-64
2023/09/18 14:07:13;;;;;;;3.42;1.50;;;;;;;;;;4974353;28;20046;-65
2023/09/18 14:09:39;;;;;;;4.07;1.67;;;;;;;;;;4968381;28;20071;-64
2023/09/18 14:12:08;;;;;;;3.95;1.50;;;;;;;;;;4972876;28;20050;-64
2023/09/18 14:14:34;;;;;;;2.33;1.30;;;;;;;;;;4971783;28;20427;-64
2023/09/18 14:17:01;;;;;;;3.35;1.30;;;;;;;;;;4969352;28;20058;-64
2023/09/18 14:19:28;;;;;;;4.10;1.45;;;;;;;;;;4975439;28;20062;-64
2023/09/18 14:21:56;;;;;;;3.35;1.50;;;;;;;;;;4982278;28;20125;-64
2023/09/18 14:24:25;;;;;;;5.72;1.65;;;;;;;;;;4974181;28;20141;-64
2023/09/18 14:26:52;;;;;;;5.22;2.58;;;;;;;;;;4976470;28;20146;-65
2023/09/18 14:29:19;;;;;;;6.35;1.98;;;;;;;;;;4981632;28;20054;-64
2023/09/18 14:31:45;;;;;;;3.90;1.63;;;;;;;;;;4984776;28;20490;-65
2023/09/18 14:34:12;;;;;;;3.58;1.20;;;;;;;;;;4977902;28;20061;-64
2023/09/18 14:36:39;;;;;;;3.70;1.67;;;;;;;;;;4973967;28;20118;-64
2023/09/18 14:39:08;;;;;;;4.90;1.27;;;;;;;;;;4974102;28;20896;-65
2023/09/18 14:41:35;;;;;;;4.28;1.42;;;;;;;;;;4977765;28;20429;-64
2023/09/18 14:44:03;;;;;;;3.58;1.30;;;;;;;;;;4974014;28;20047;-64
2023/09/18 14:46:30;;;;;;;3.13;1.40;;;;;;;;;;4978894;28;20046;-65